sensor_id;sensor_type;location;lat;lon;timestamp;P1;durP1;ratioP1;P2;durP2;ratioP2
13897;SDS011;7019;50.766;4.474;2023-06-24T00:00:10;6.37;;;5.40;;
13897;SDS011;7019;50.766;4.474;2023-06-24T00:02:39;7.93;;;4.77;;
13897;SDS011;7019;50.766;4.474;2023-06-24T00:05:09;5.73;;;5.13;;
13897;SDS011;7019;50.766;4.474;2023-06-24T00:07:36;8.07;;;5.87;;
13897;SDS011;7019;50.766;4.474;2023-06-24T00:10:09;6.73;;;4.93;;
13897;SDS011;7019;50.766;4.474;2023-06-24T00:12:37;8.83;;;5.63;;
13897;SDS011;7019;50.766;4.474;2023-06-24T00:15:06;13.33;;;7.03;;
13897;SDS011;7019;50.766;4.474;2023-06-24T00:17:35;9.93;;;8.10;;
13897;SDS011;7019;50.766;4.474;2023-06-24T00:20:04;9.10;;;6.10;;
13897;SDS011;7019;50.766;4.474;2023-06-24T00:22:33;9.43;;;6.87;;
13897;SDS011;7019;50.766;4.474;2023-06-24T00:25:00;9.27;;;6.17;;
13897;SDS011;7019;50.766;4.474;2023-06-24T00:27:28;10.93;;;6.97;;
13897;SDS011;7019;50.766;4.474;2023-06-24T00:29:55;9.50;;;6.20;;
13897;SDS011;7019;50.766;4.474;2023-06-24T00:32:22;10.60;;;6.10;;
13897;SDS011;7019;50.766;4.474;2023-06-24T00:34:49;9.57;;;7.00;;
13897;SDS011;7019;50.766;4.474;2023-06-24T00:37:17;12.37;;;8.07;;
13897;SDS011;7019;50.766;4.474;2023-06-24T00:39:44;15.27;;;9.23;;
13897;SDS011;7019;50.766;4.474;2023-06-24T00:42:11;21.63;;;12.23;;
13897;SDS011;7019;50.766;4.474;2023-06-24T00:44:38;15.50;;;10.67;;
13897;SDS011;7019;50.766;4.474;2023-06-24T00:47:06;18.70;;;13.23;;
13897;SDS011;7019;50.766;4.474;2023-06-24T00:49:35;17.53;;;13.13;;
13897;SDS011;7019;50.766;4.474;2023-06-24T00:52:02;16.17;;;11.47;;
13897;SDS011;7019;50.766;4.474;2023-06-24T00:54:31;16.00;;;10.57;;
13897;SDS011;7019;50.766;4.474;2023-06-24T00:56:58;14.03;;;9.50;;
13897;SDS011;7019;50.766;4.474;2023-06-24T00:59:26;11.40;;;8.10;;
13897;SDS011;7019;50.766;4.474;2023-06-24T01:01:57;9.53;;;7.50;;
13897;SDS011;7019;50.766;4.474;2023-06-24T01:04:26;10.37;;;6.60;;
13897;SDS011;7019;50.766;4.474;2023-06-24T01:06:54;10.40;;;6.80;;
13897;SDS011;7019;50.766;4.474;2023-06-24T01:09:23;6.90;;;5.83;;
13897;SDS011;7019;50.766;4.474;2023-06-24T01:11:52;7.60;;;5.80;;
13897;SDS011;7019;50.766;4.474;2023-06-24T01:14:19;6.10;;;5.10;;
13897;SDS011;7019;50.766;4.474;2023-06-24T01:16:49;5.87;;;4.97;;
13897;SDS011;7019;50.766;4.474;2023-06-24T01:19:44;6.37;;;4.50;;
13897;SDS011;7019;50.766;4.474;2023-06-24T01:22:29;5.47;;;4.27;;
13897;SDS011;7019;50.766;4.474;2023-06-24T01:25:15;4.70;;;4.07;;
13897;SDS011;7019;50.766;4.474;2023-06-24T01:28:01;5.03;;;4.17;;
13897;SDS011;7019;50.766;4.474;2023-06-24T01:30:43;6.67;;;4.13;;
13897;SDS011;7019;50.766;4.474;2023-06-24T01:33:23;6.73;;;4.20;;
13897;SDS011;7019;50.766;4.474;2023-06-24T01:35:56;4.50;;;3.97;;
13897;SDS011;7019;50.766;4.474;2023-06-24T01:38:28;5.47;;;4.23;;
13897;SDS011;7019;50.766;4.474;2023-06-24T01:41:01;6.43;;;4.40;;
13897;SDS011;7019;50.766;4.474;2023-06-24T01:43:31;5.33;;;3.80;;
13897;SDS011;7019;50.766;4.474;2023-06-24T01:46:00;6.27;;;4.53;;
13897;SDS011;7019;50.766;4.474;2023-06-24T01:48:32;6.50;;;4.20;;
13897;SDS011;7019;50.766;4.474;2023-06-24T01:51:03;5.97;;;4.57;;
13897;SDS011;7019;50.766;4.474;2023-06-24T01:53:37;10.17;;;4.17;;
13897;SDS011;7019;50.766;4.474;2023-06-24T01:56:07;6.27;;;4.40;;
13897;SDS011;7019;50.766;4.474;2023-06-24T01:58:37;5.70;;;5.10;;
13897;SDS011;7019;50.766;4.474;2023-06-24T02:01:05;6.70;;;4.07;;
13897;SDS011;7019;50.766;4.474;2023-06-24T02:03:35;6.27;;;5.23;;
13897;SDS011;7019;50.766;4.474;2023-06-24T02:06:02;6.40;;;4.70;;
13897;SDS011;7019;50.766;4.474;2023-06-24T02:08:34;5.70;;;4.30;;
13897;SDS011;7019;50.766;4.474;2023-06-24T02:11:04;6.17;;;4.53;;
13897;SDS011;7019;50.766;4.474;2023-06-24T02:13:32;6.60;;;5.23;;
13897;SDS011;7019;50.766;4.474;2023-06-24T02:16:01;7.60;;;4.70;;
13897;SDS011;7019;50.766;4.474;2023-06-24T02:18:30;5.60;;;4.37;;
13897;SDS011;7019;50.766;4.474;2023-06-24T02:21:00;7.33;;;4.60;;
13897;SDS011;7019;50.766;4.474;2023-06-24T02:23:28;7.17;;;3.80;;
13897;SDS011;7019;50.766;4.474;2023-06-24T02:25:56;7.07;;;3.97;;
13897;SDS011;7019;50.766;4.474;2023-06-24T02:28:24;4.57;;;4.07;;
13897;SDS011;7019;50.766;4.474;2023-06-24T02:30:51;5.03;;;4.47;;
13897;SDS011;7019;50.766;4.474;2023-06-24T02:33:19;7.13;;;3.70;;
13897;SDS011;7019;50.766;4.474;2023-06-24T02:35:46;6.73;;;4.37;;
13897;SDS011;7019;50.766;4.474;2023-06-24T02:38:14;6.47;;;4.10;;
13897;SDS011;7019;50.766;4.474;2023-06-24T02:40:42;4.47;;;3.80;;
13897;SDS011;7019;50.766;4.474;2023-06-24T02:43:11;5.80;;;3.93;;
13897;SDS011;7019;50.766;4.474;2023-06-24T02:45:38;4.47;;;3.80;;
13897;SDS011;7019;50.766;4.474;2023-06-24T02:48:06;4.10;;;3.70;;
13897;SDS011;7019;50.766;4.474;2023-06-24T02:50:36;5.50;;;3.83;;
13897;SDS011;7019;50.766;4.474;2023-06-24T02:53:06;5.70;;;3.97;;
13897;SDS011;7019;50.766;4.474;2023-06-24T02:55:35;6.97;;;3.90;;
13897;SDS011;7019;50.766;4.474;2023-06-24T02:58:03;6.40;;;4.33;;
13897;SDS011;7019;50.766;4.474;2023-06-24T03:00:33;5.83;;;3.47;;
13897;SDS011;7019;50.766;4.474;2023-06-24T03:03:00;6.77;;;5.37;;
13897;SDS011;7019;50.766;4.474;2023-06-24T03:05:28;6.80;;;4.47;;
13897;SDS011;7019;50.766;4.474;2023-06-24T03:07:58;6.40;;;3.70;;
13897;SDS011;7019;50.766;4.474;2023-06-24T03:10:25;5.40;;;4.63;;
13897;SDS011;7019;50.766;4.474;2023-06-24T03:12:53;5.83;;;4.00;;
13897;SDS011;7019;50.766;4.474;2023-06-24T03:15:20;7.70;;;4.70;;
13897;SDS011;7019;50.766;4.474;2023-06-24T03:17:48;6.97;;;4.03;;
13897;SDS011;7019;50.766;4.474;2023-06-24T03:20:16;5.53;;;4.80;;
13897;SDS011;7019;50.766;4.474;2023-06-24T03:22:43;5.03;;;4.03;;
13897;SDS011;7019;50.766;4.474;2023-06-24T03:25:11;5.20;;;4.43;;
13897;SDS011;7019;50.766;4.474;2023-06-24T03:27:38;7.87;;;4.50;;
13897;SDS011;7019;50.766;4.474;2023-06-24T03:30:07;4.77;;;3.93;;
13897;SDS011;7019;50.766;4.474;2023-06-24T03:32:39;6.40;;;4.93;;
13897;SDS011;7019;50.766;4.474;2023-06-24T03:35:12;6.10;;;4.63;;
13897;SDS011;7019;50.766;4.474;2023-06-24T03:37:39;9.53;;;5.60;;
13897;SDS011;7019;50.766;4.474;2023-06-24T03:40:07;5.33;;;4.67;;
13897;SDS011;7019;50.766;4.474;2023-06-24T03:42:34;7.53;;;4.47;;
13897;SDS011;7019;50.766;4.474;2023-06-24T03:45:02;10.10;;;4.97;;
13897;SDS011;7019;50.766;4.474;2023-06-24T03:47:31;6.00;;;4.80;;
13897;SDS011;7019;50.766;4.474;2023-06-24T03:49:58;6.50;;;4.47;;
13897;SDS011;7019;50.766;4.474;2023-06-24T03:52:25;4.97;;;4.07;;
13897;SDS011;7019;50.766;4.474;2023-06-24T03:54:52;7.80;;;3.60;;
13897;SDS011;7019;50.766;4.474;2023-06-24T03:57:19;7.10;;;3.40;;
13897;SDS011;7019;50.766;4.474;2023-06-24T03:59:47;5.33;;;4.40;;
13897;SDS011;7019;50.766;4.474;2023-06-24T04:02:14;5.87;;;4.73;;
13897;SDS011;7019;50.766;4.474;2023-06-24T04:04:44;9.27;;;4.43;;
13897;SDS011;7019;50.766;4.474;2023-06-24T04:07:15;7.70;;;4.70;;
13897;SDS011;7019;50.766;4.474;2023-06-24T04:09:53;8.57;;;4.63;;
13897;SDS011;7019;50.766;4.474;2023-06-24T04:12:21;8.83;;;4.40;;
13897;SDS011;7019;50.766;4.474;2023-06-24T04:14:48;6.43;;;4.80;;
13897;SDS011;7019;50.766;4.474;2023-06-24T04:17:15;6.50;;;4.60;;
13897;SDS011;7019;50.766;4.474;2023-06-24T04:19:43;4.83;;;4.03;;
13897;SDS011;7019;50.766;4.474;2023-06-24T04:22:10;5.47;;;3.77;;
13897;SDS011;7019;50.766;4.474;2023-06-24T04:24:38;7.50;;;4.57;;
13897;SDS011;7019;50.766;4.474;2023-06-24T04:27:05;4.73;;;4.10;;
13897;SDS011;7019;50.766;4.474;2023-06-24T04:29:33;7.50;;;4.30;;
13897;SDS011;7019;50.766;4.474;2023-06-24T04:32:00;6.53;;;4.30;;
13897;SDS011;7019;50.766;4.474;2023-06-24T04:34:28;6.60;;;4.43;;
13897;SDS011;7019;50.766;4.474;2023-06-24T04:36:56;6.23;;;4.27;;
13897;SDS011;7019;50.766;4.474;2023-06-24T04:39:23;4.67;;;3.60;;
13897;SDS011;7019;50.766;4.474;2023-06-24T04:41:50;6.17;;;3.97;;
13897;SDS011;7019;50.766;4.474;2023-06-24T04:44:17;5.00;;;4.00;;
13897;SDS011;7019;50.766;4.474;2023-06-24T04:46:45;5.17;;;3.97;;
13897;SDS011;7019;50.766;4.474;2023-06-24T04:49:12;4.87;;;4.40;;
13897;SDS011;7019;50.766;4.474;2023-06-24T04:51:40;5.90;;;4.30;;
13897;SDS011;7019;50.766;4.474;2023-06-24T04:54:09;4.97;;;4.20;;
13897;SDS011;7019;50.766;4.474;2023-06-24T04:56:38;5.57;;;3.80;;
13897;SDS011;7019;50.766;4.474;2023-06-24T04:59:05;8.90;;;3.73;;
13897;SDS011;7019;50.766;4.474;2023-06-24T05:01:32;4.43;;;4.03;;
13897;SDS011;7019;50.766;4.474;2023-06-24T05:03:59;6.37;;;4.27;;
13897;SDS011;7019;50.766;4.474;2023-06-24T05:06:26;4.03;;;3.17;;
13897;SDS011;7019;50.766;4.474;2023-06-24T05:08:53;6.27;;;4.00;;
13897;SDS011;7019;50.766;4.474;2023-06-24T05:11:22;7.03;;;3.97;;
13897;SDS011;7019;50.766;4.474;2023-06-24T05:13:49;4.20;;;3.50;;
13897;SDS011;7019;50.766;4.474;2023-06-24T05:16:16;7.10;;;3.83;;
13897;SDS011;7019;50.766;4.474;2023-06-24T05:18:43;4.90;;;3.53;;
13897;SDS011;7019;50.766;4.474;2023-06-24T05:21:11;4.63;;;3.60;;
13897;SDS011;7019;50.766;4.474;2023-06-24T05:23:38;8.17;;;3.63;;
13897;SDS011;7019;50.766;4.474;2023-06-24T05:26:05;4.33;;;3.40;;
13897;SDS011;7019;50.766;4.474;2023-06-24T05:28:33;5.07;;;3.70;;
13897;SDS011;7019;50.766;4.474;2023-06-24T05:31:00;4.33;;;3.30;;
13897;SDS011;7019;50.766;4.474;2023-06-24T05:33:27;4.07;;;3.67;;
13897;SDS011;7019;50.766;4.474;2023-06-24T05:35:54;4.53;;;2.93;;
13897;SDS011;7019;50.766;4.474;2023-06-24T05:38:21;4.33;;;3.00;;
13897;SDS011;7019;50.766;4.474;2023-06-24T05:40:48;5.30;;;2.80;;
13897;SDS011;7019;50.766;4.474;2023-06-24T05:43:15;3.53;;;2.50;;
13897;SDS011;7019;50.766;4.474;2023-06-24T05:45:44;4.40;;;2.67;;
13897;SDS011;7019;50.766;4.474;2023-06-24T05:48:11;4.10;;;2.43;;
13897;SDS011;7019;50.766;4.474;2023-06-24T05:50:39;2.22;;;1.98;;
13897;SDS011;7019;50.766;4.474;2023-06-24T05:53:06;2.78;;;1.83;;
13897;SDS011;7019;50.766;4.474;2023-06-24T05:55:33;2.25;;;1.80;;
13897;SDS011;7019;50.766;4.474;2023-06-24T05:58:00;1.65;;;1.55;;
13897;SDS011;7019;50.766;4.474;2023-06-24T06:00:27;2.72;;;1.88;;
13897;SDS011;7019;50.766;4.474;2023-06-24T06:02:56;2.65;;;1.85;;
13897;SDS011;7019;50.766;4.474;2023-06-24T06:05:23;3.80;;;2.42;;
13897;SDS011;7019;50.766;4.474;2023-06-24T06:07:50;2.70;;;1.90;;
13897;SDS011;7019;50.766;4.474;2023-06-24T06:10:18;2.55;;;2.00;;
13897;SDS011;7019;50.766;4.474;2023-06-24T06:12:46;1.75;;;1.65;;
13897;SDS011;7019;50.766;4.474;2023-06-24T06:15:13;3.72;;;2.28;;
13897;SDS011;7019;50.766;4.474;2023-06-24T06:17:40;1.92;;;1.60;;
13897;SDS011;7019;50.766;4.474;2023-06-24T06:20:09;2.13;;;1.73;;
13897;SDS011;7019;50.766;4.474;2023-06-24T06:22:37;2.72;;;1.95;;
13897;SDS011;7019;50.766;4.474;2023-06-24T06:25:04;5.47;;;2.10;;
13897;SDS011;7019;50.766;4.474;2023-06-24T06:27:32;2.70;;;1.95;;
13897;SDS011;7019;50.766;4.474;2023-06-24T06:29:59;2.05;;;1.73;;
13897;SDS011;7019;50.766;4.474;2023-06-24T06:32:26;1.63;;;1.50;;
13897;SDS011;7019;50.766;4.474;2023-06-24T06:34:53;3.55;;;1.98;;
13897;SDS011;7019;50.766;4.474;2023-06-24T06:37:22;1.85;;;1.60;;
13897;SDS011;7019;50.766;4.474;2023-06-24T06:39:49;2.85;;;1.70;;
13897;SDS011;7019;50.766;4.474;2023-06-24T06:42:16;2.58;;;1.75;;
13897;SDS011;7019;50.766;4.474;2023-06-24T06:44:43;2.63;;;1.38;;
13897;SDS011;7019;50.766;4.474;2023-06-24T06:47:10;1.70;;;1.30;;
13897;SDS011;7019;50.766;4.474;2023-06-24T06:49:37;2.38;;;1.70;;
13897;SDS011;7019;50.766;4.474;2023-06-24T06:52:05;1.73;;;1.63;;
13897;SDS011;7019;50.766;4.474;2023-06-24T06:54:34;3.90;;;1.70;;
13897;SDS011;7019;50.766;4.474;2023-06-24T06:57:01;2.50;;;1.83;;
13897;SDS011;7019;50.766;4.474;2023-06-24T06:59:28;2.33;;;1.70;;
13897;SDS011;7019;50.766;4.474;2023-06-24T07:01:56;2.47;;;1.60;;
13897;SDS011;7019;50.766;4.474;2023-06-24T07:04:23;2.05;;;1.73;;
13897;SDS011;7019;50.766;4.474;2023-06-24T07:06:50;3.00;;;1.63;;
13897;SDS011;7019;50.766;4.474;2023-06-24T07:09:17;2.15;;;1.50;;
13897;SDS011;7019;50.766;4.474;2023-06-24T07:11:47;2.72;;;1.60;;
13897;SDS011;7019;50.766;4.474;2023-06-24T07:14:14;3.15;;;1.83;;
13897;SDS011;7019;50.766;4.474;2023-06-24T07:16:41;1.65;;;1.55;;
13897;SDS011;7019;50.766;4.474;2023-06-24T07:19:08;2.50;;;1.58;;
13897;SDS011;7019;50.766;4.474;2023-06-24T07:21:35;1.95;;;1.55;;
13897;SDS011;7019;50.766;4.474;2023-06-24T07:24:02;6.35;;;2.00;;
13897;SDS011;7019;50.766;4.474;2023-06-24T07:26:30;2.83;;;1.38;;
13897;SDS011;7019;50.766;4.474;2023-06-24T07:28:58;2.28;;;1.60;;
13897;SDS011;7019;50.766;4.474;2023-06-24T07:31:26;2.47;;;1.58;;
13897;SDS011;7019;50.766;4.474;2023-06-24T07:33:53;2.13;;;1.27;;
13897;SDS011;7019;50.766;4.474;2023-06-24T07:36:20;2.17;;;1.83;;
13897;SDS011;7019;50.766;4.474;2023-06-24T07:38:47;1.95;;;1.60;;
13897;SDS011;7019;50.766;4.474;2023-06-24T07:41:14;3.10;;;1.67;;
13897;SDS011;7019;50.766;4.474;2023-06-24T07:43:41;1.75;;;1.60;;
13897;SDS011;7019;50.766;4.474;2023-06-24T07:46:10;2.55;;;1.40;;
13897;SDS011;7019;50.766;4.474;2023-06-24T07:48:37;2.22;;;1.50;;
13897;SDS011;7019;50.766;4.474;2023-06-24T07:51:04;2.33;;;1.77;;
13897;SDS011;7019;50.766;4.474;2023-06-24T07:53:31;2.75;;;1.50;;
13897;SDS011;7019;50.766;4.474;2023-06-24T07:55:59;1.58;;;1.40;;
13897;SDS011;7019;50.766;4.474;2023-06-24T07:58:26;4.30;;;1.80;;
13897;SDS011;7019;50.766;4.474;2023-06-24T08:00:53;2.58;;;1.67;;
13897;SDS011;7019;50.766;4.474;2023-06-24T08:03:21;2.45;;;1.55;;
13897;SDS011;7019;50.766;4.474;2023-06-24T08:05:48;2.85;;;1.70;;
13897;SDS011;7019;50.766;4.474;2023-06-24T08:08:15;2.17;;;1.83;;
13897;SDS011;7019;50.766;4.474;2023-06-24T08:10:44;1.90;;;1.58;;
13897;SDS011;7019;50.766;4.474;2023-06-24T08:13:11;1.83;;;1.30;;
13897;SDS011;7019;50.766;4.474;2023-06-24T08:15:38;2.15;;;1.65;;
13897;SDS011;7019;50.766;4.474;2023-06-24T08:18:05;4.18;;;1.65;;
13897;SDS011;7019;50.766;4.474;2023-06-24T08:20:34;1.38;;;1.27;;
13897;SDS011;7019;50.766;4.474;2023-06-24T08:23:01;2.30;;;1.67;;
13897;SDS011;7019;50.766;4.474;2023-06-24T08:25:28;2.17;;;1.70;;
13897;SDS011;7019;50.766;4.474;2023-06-24T08:27:55;3.35;;;1.83;;
13897;SDS011;7019;50.766;4.474;2023-06-24T08:30:22;2.08;;;1.83;;
13897;SDS011;7019;50.766;4.474;2023-06-24T08:32:49;1.98;;;1.20;;
13897;SDS011;7019;50.766;4.474;2023-06-24T08:35:16;5.35;;;1.45;;
13897;SDS011;7019;50.766;4.474;2023-06-24T08:37:45;2.85;;;1.30;;
13897;SDS011;7019;50.766;4.474;2023-06-24T08:40:12;1.65;;;1.15;;
13897;SDS011;7019;50.766;4.474;2023-06-24T08:42:39;1.45;;;1.33;;
13897;SDS011;7019;50.766;4.474;2023-06-24T08:45:06;1.88;;;1.50;;
13897;SDS011;7019;50.766;4.474;2023-06-24T08:47:34;1.45;;;1.27;;
13897;SDS011;7019;50.766;4.474;2023-06-24T08:50:03;2.17;;;1.30;;
13897;SDS011;7019;50.766;4.474;2023-06-24T08:52:35;1.77;;;1.35;;
13897;SDS011;7019;50.766;4.474;2023-06-24T08:55:04;2.10;;;1.50;;
13897;SDS011;7019;50.766;4.474;2023-06-24T08:57:35;2.17;;;1.33;;
13897;SDS011;7019;50.766;4.474;2023-06-24T09:00:03;1.95;;;1.25;;
13897;SDS011;7019;50.766;4.474;2023-06-24T09:02:34;2.65;;;1.45;;
13897;SDS011;7019;50.766;4.474;2023-06-24T09:05:03;1.58;;;1.27;;
13897;SDS011;7019;50.766;4.474;2023-06-24T09:07:30;11.30;;;1.92;;
13897;SDS011;7019;50.766;4.474;2023-06-24T09:09:57;2.80;;;1.30;;
13897;SDS011;7019;50.766;4.474;2023-06-24T09:12:27;4.85;;;1.48;;
13897;SDS011;7019;50.766;4.474;2023-06-24T09:14:54;2.95;;;1.60;;
13897;SDS011;7019;50.766;4.474;2023-06-24T09:17:21;1.75;;;1.52;;
13897;SDS011;7019;50.766;4.474;2023-06-24T09:19:49;1.65;;;1.55;;
13897;SDS011;7019;50.766;4.474;2023-06-24T09:22:16;1.98;;;1.75;;
13897;SDS011;7019;50.766;4.474;2023-06-24T09:24:44;1.80;;;1.30;;
13897;SDS011;7019;50.766;4.474;2023-06-24T09:27:12;2.55;;;1.60;;
13897;SDS011;7019;50.766;4.474;2023-06-24T09:29:42;2.22;;;1.75;;
13897;SDS011;7019;50.766;4.474;2023-06-24T09:32:10;2.60;;;1.70;;
13897;SDS011;7019;50.766;4.474;2023-06-24T09:34:37;2.05;;;1.60;;
13897;SDS011;7019;50.766;4.474;2023-06-24T09:37:05;2.28;;;1.85;;
13897;SDS011;7019;50.766;4.474;2023-06-24T09:39:35;3.30;;;1.38;;
13897;SDS011;7019;50.766;4.474;2023-06-24T09:42:04;1.63;;;1.35;;
13897;SDS011;7019;50.766;4.474;2023-06-24T09:44:32;15.55;;;4.18;;
13897;SDS011;7019;50.766;4.474;2023-06-24T09:47:04;4.85;;;2.00;;
13897;SDS011;7019;50.766;4.474;2023-06-24T09:49:32;43.40;;;4.55;;
13897;SDS011;7019;50.766;4.474;2023-06-24T09:51:59;14.57;;;2.15;;
13897;SDS011;7019;50.766;4.474;2023-06-24T09:54:28;8.45;;;2.20;;
13897;SDS011;7019;50.766;4.474;2023-06-24T09:56:56;4.85;;;1.60;;
13897;SDS011;7019;50.766;4.474;2023-06-24T09:59:27;1.98;;;1.40;;
13897;SDS011;7019;50.766;4.474;2023-06-24T10:01:56;2.33;;;1.50;;
13897;SDS011;7019;50.766;4.474;2023-06-24T10:04:25;2.63;;;1.58;;
13897;SDS011;7019;50.766;4.474;2023-06-24T10:06:54;3.70;;;1.65;;
13897;SDS011;7019;50.766;4.474;2023-06-24T10:09:21;1.83;;;1.60;;
13897;SDS011;7019;50.766;4.474;2023-06-24T10:11:49;2.45;;;1.98;;
13897;SDS011;7019;50.766;4.474;2023-06-24T10:14:17;2.50;;;1.40;;
13897;SDS011;7019;50.766;4.474;2023-06-24T10:16:44;1.88;;;1.30;;
13897;SDS011;7019;50.766;4.474;2023-06-24T10:19:14;1.73;;;1.35;;
13897;SDS011;7019;50.766;4.474;2023-06-24T10:21:50;2.22;;;1.58;;
13897;SDS011;7019;50.766;4.474;2023-06-24T10:24:27;2.25;;;1.50;;
13897;SDS011;7019;50.766;4.474;2023-06-24T10:27:00;1.50;;;1.30;;
13897;SDS011;7019;50.766;4.474;2023-06-24T10:29:31;2.33;;;1.70;;
13897;SDS011;7019;50.766;4.474;2023-06-24T10:32:05;2.22;;;1.38;;
13897;SDS011;7019;50.766;4.474;2023-06-24T10:34:39;2.58;;;1.50;;
13897;SDS011;7019;50.766;4.474;2023-06-24T10:37:12;1.65;;;1.40;;
13897;SDS011;7019;50.766;4.474;2023-06-24T10:39:45;1.98;;;1.70;;
13897;SDS011;7019;50.766;4.474;2023-06-24T10:42:33;3.25;;;1.42;;
13897;SDS011;7019;50.766;4.474;2023-06-24T10:45:14;1.75;;;1.50;;
13897;SDS011;7019;50.766;4.474;2023-06-24T10:47:45;2.22;;;1.80;;
13897;SDS011;7019;50.766;4.474;2023-06-24T10:50:14;2.67;;;1.27;;
13897;SDS011;7019;50.766;4.474;2023-06-24T10:52:44;1.35;;;1.23;;
13897;SDS011;7019;50.766;4.474;2023-06-24T10:55:13;1.88;;;1.27;;
13897;SDS011;7019;50.766;4.474;2023-06-24T10:57:41;2.60;;;1.55;;
13897;SDS011;7019;50.766;4.474;2023-06-24T11:00:08;2.15;;;1.42;;
13897;SDS011;7019;50.766;4.474;2023-06-24T11:02:37;1.40;;;1.20;;
13897;SDS011;7019;50.766;4.474;2023-06-24T11:05:04;1.73;;;1.23;;
13897;SDS011;7019;50.766;4.474;2023-06-24T11:07:32;2.45;;;1.42;;
13897;SDS011;7019;50.766;4.474;2023-06-24T11:10:03;1.80;;;1.60;;
13897;SDS011;7019;50.766;4.474;2023-06-24T11:12:32;4.85;;;1.58;;
13897;SDS011;7019;50.766;4.474;2023-06-24T11:15:00;1.75;;;1.33;;
13897;SDS011;7019;50.766;4.474;2023-06-24T11:17:29;2.08;;;1.45;;
13897;SDS011;7019;50.766;4.474;2023-06-24T11:19:56;1.85;;;1.67;;
13897;SDS011;7019;50.766;4.474;2023-06-24T11:22:24;2.92;;;1.48;;
13897;SDS011;7019;50.766;4.474;2023-06-24T11:24:52;1.50;;;1.17;;
13897;SDS011;7019;50.766;4.474;2023-06-24T11:27:24;1.20;;;0.90;;
13897;SDS011;7019;50.766;4.474;2023-06-24T11:29:53;1.73;;;1.30;;
13897;SDS011;7019;50.766;4.474;2023-06-24T11:32:21;1.38;;;1.27;;
13897;SDS011;7019;50.766;4.474;2023-06-24T11:34:48;1.77;;;1.67;;
13897;SDS011;7019;50.766;4.474;2023-06-24T11:37:16;1.38;;;1.20;;
13897;SDS011;7019;50.766;4.474;2023-06-24T11:39:44;1.67;;;1.30;;
13897;SDS011;7019;50.766;4.474;2023-06-24T11:42:27;1.40;;;1.27;;
13897;SDS011;7019;50.766;4.474;2023-06-24T11:44:58;1.63;;;1.45;;
13897;SDS011;7019;50.766;4.474;2023-06-24T11:47:26;4.85;;;2.08;;
13897;SDS011;7019;50.766;4.474;2023-06-24T11:49:57;173.48;;;27.98;;
13897;SDS011;7019;50.766;4.474;2023-06-24T11:55:12;3.08;;;2.03;;
13897;SDS011;7019;50.766;4.474;2023-06-24T11:57:54;4.25;;;1.88;;
13897;SDS011;7019;50.766;4.474;2023-06-24T12:00:22;3.80;;;1.27;;
13897;SDS011;7019;50.766;4.474;2023-06-24T12:02:52;14.40;;;2.33;;
13897;SDS011;7019;50.766;4.474;2023-06-24T12:05:24;8.65;;;2.05;;
13897;SDS011;7019;50.766;4.474;2023-06-24T12:07:56;2.35;;;1.38;;
13897;SDS011;7019;50.766;4.474;2023-06-24T12:10:24;13.20;;;2.53;;
13897;SDS011;7019;50.766;4.474;2023-06-24T12:12:52;4.22;;;1.48;;
13897;SDS011;7019;50.766;4.474;2023-06-24T12:15:20;2.15;;;1.52;;
13897;SDS011;7019;50.766;4.474;2023-06-24T12:17:47;1.20;;;1.10;;
13897;SDS011;7019;50.766;4.474;2023-06-24T12:20:15;2.72;;;1.60;;
13897;SDS011;7019;50.766;4.474;2023-06-24T12:22:43;4.57;;;1.50;;
13897;SDS011;7019;50.766;4.474;2023-06-24T12:25:13;2.22;;;1.85;;
13897;SDS011;7019;50.766;4.474;2023-06-24T12:27:41;2.45;;;1.25;;
13897;SDS011;7019;50.766;4.474;2023-06-24T12:30:10;1.45;;;1.33;;
13897;SDS011;7019;50.766;4.474;2023-06-24T12:32:38;1.70;;;1.50;;
13897;SDS011;7019;50.766;4.474;2023-06-24T12:35:06;1.52;;;1.38;;
13897;SDS011;7019;50.766;4.474;2023-06-24T12:37:34;1.77;;;1.40;;
13897;SDS011;7019;50.766;4.474;2023-06-24T12:40:02;1.70;;;1.30;;
13897;SDS011;7019;50.766;4.474;2023-06-24T12:42:29;1.88;;;1.40;;
13897;SDS011;7019;50.766;4.474;2023-06-24T12:44:56;3.40;;;1.65;;
13897;SDS011;7019;50.766;4.474;2023-06-24T12:47:25;2.95;;;1.50;;
13897;SDS011;7019;50.766;4.474;2023-06-24T12:49:52;1.38;;;1.20;;
13897;SDS011;7019;50.766;4.474;2023-06-24T12:52:19;1.88;;;1.33;;
13897;SDS011;7019;50.766;4.474;2023-06-24T12:54:46;1.35;;;1.10;;
13897;SDS011;7019;50.766;4.474;2023-06-24T12:57:14;1.60;;;1.50;;
13897;SDS011;7019;50.766;4.474;2023-06-24T12:59:41;2.20;;;1.70;;
13897;SDS011;7019;50.766;4.474;2023-06-24T13:02:08;1.50;;;1.40;;
13897;SDS011;7019;50.766;4.474;2023-06-24T13:04:37;1.42;;;1.33;;
13897;SDS011;7019;50.766;4.474;2023-06-24T13:07:04;1.95;;;1.20;;
13897;SDS011;7019;50.766;4.474;2023-06-24T13:09:32;1.42;;;1.33;;
13897;SDS011;7019;50.766;4.474;2023-06-24T13:11:59;2.05;;;1.63;;
13897;SDS011;7019;50.766;4.474;2023-06-24T13:14:26;3.03;;;1.23;;
13897;SDS011;7019;50.766;4.474;2023-06-24T13:16:54;2.15;;;1.60;;
13897;SDS011;7019;50.766;4.474;2023-06-24T13:19:21;2.15;;;1.58;;
13897;SDS011;7019;50.766;4.474;2023-06-24T13:21:49;1.70;;;1.60;;
13897;SDS011;7019;50.766;4.474;2023-06-24T13:24:16;2.03;;;1.63;;
13897;SDS011;7019;50.766;4.474;2023-06-24T13:26:43;2.17;;;1.42;;
13897;SDS011;7019;50.766;4.474;2023-06-24T13:29:10;4.18;;;1.45;;
13897;SDS011;7019;50.766;4.474;2023-06-24T13:31:38;1.48;;;1.23;;
13897;SDS011;7019;50.766;4.474;2023-06-24T13:34:05;2.90;;;1.40;;
13897;SDS011;7019;50.766;4.474;2023-06-24T13:36:33;2.22;;;1.60;;
13897;SDS011;7019;50.766;4.474;2023-06-24T13:39:03;2.15;;;1.52;;
13897;SDS011;7019;50.766;4.474;2023-06-24T13:41:31;2.75;;;1.40;;
13897;SDS011;7019;50.766;4.474;2023-06-24T13:43:59;2.70;;;1.60;;
13897;SDS011;7019;50.766;4.474;2023-06-24T13:46:27;2.13;;;1.65;;
13897;SDS011;7019;50.766;4.474;2023-06-24T13:48:55;1.40;;;1.17;;
13897;SDS011;7019;50.766;4.474;2023-06-24T13:51:22;1.65;;;1.42;;
13897;SDS011;7019;50.766;4.474;2023-06-24T13:53:50;2.00;;;1.50;;
13897;SDS011;7019;50.766;4.474;2023-06-24T13:56:21;1.63;;;1.52;;
13897;SDS011;7019;50.766;4.474;2023-06-24T13:58:49;2.00;;;1.50;;
13897;SDS011;7019;50.766;4.474;2023-06-24T14:01:17;4.72;;;1.70;;
13897;SDS011;7019;50.766;4.474;2023-06-24T14:03:44;1.63;;;1.48;;
13897;SDS011;7019;50.766;4.474;2023-06-24T14:06:13;1.90;;;1.63;;
13897;SDS011;7019;50.766;4.474;2023-06-24T14:08:40;4.00;;;1.38;;
13897;SDS011;7019;50.766;4.474;2023-06-24T14:11:07;1.63;;;1.45;;
13897;SDS011;7019;50.766;4.474;2023-06-24T14:13:36;2.78;;;1.40;;
13897;SDS011;7019;50.766;4.474;2023-06-24T14:16:03;1.70;;;1.48;;
13897;SDS011;7019;50.766;4.474;2023-06-24T14:18:31;1.90;;;1.50;;
13897;SDS011;7019;50.766;4.474;2023-06-24T14:20:58;2.15;;;1.38;;
13897;SDS011;7019;50.766;4.474;2023-06-24T14:23:25;2.17;;;1.40;;
13897;SDS011;7019;50.766;4.474;2023-06-24T14:25:53;2.95;;;1.40;;
13897;SDS011;7019;50.766;4.474;2023-06-24T14:28:20;2.20;;;1.90;;
13897;SDS011;7019;50.766;4.474;2023-06-24T14:30:48;1.63;;;1.33;;
13897;SDS011;7019;50.766;4.474;2023-06-24T14:33:16;4.25;;;1.67;;
13897;SDS011;7019;50.766;4.474;2023-06-24T14:35:43;4.68;;;2.10;;
13897;SDS011;7019;50.766;4.474;2023-06-24T14:38:10;2.45;;;1.75;;
13897;SDS011;7019;50.766;4.474;2023-06-24T14:40:37;3.58;;;1.90;;
13897;SDS011;7019;50.766;4.474;2023-06-24T14:43:04;2.03;;;1.80;;
13897;SDS011;7019;50.766;4.474;2023-06-24T14:45:31;1.98;;;1.55;;
13897;SDS011;7019;50.766;4.474;2023-06-24T14:47:59;4.57;;;3.45;;
13897;SDS011;7019;50.766;4.474;2023-06-24T14:50:27;2.53;;;2.13;;
13897;SDS011;7019;50.766;4.474;2023-06-24T14:52:54;2.42;;;2.22;;
13897;SDS011;7019;50.766;4.474;2023-06-24T14:55:21;4.95;;;3.42;;
13897;SDS011;7019;50.766;4.474;2023-06-24T14:57:48;4.72;;;3.10;;
13897;SDS011;7019;50.766;4.474;2023-06-24T15:00:15;2.05;;;1.75;;
13897;SDS011;7019;50.766;4.474;2023-06-24T15:02:42;3.92;;;2.40;;
13897;SDS011;7019;50.766;4.474;2023-06-24T15:05:11;2.38;;;2.00;;
13897;SDS011;7019;50.766;4.474;2023-06-24T15:07:38;3.78;;;1.90;;
13897;SDS011;7019;50.766;4.474;2023-06-24T15:10:06;1.88;;;1.50;;